Portada
METAR-TAF:

METAR-TAF

Aeroports :

Karachi, Pakistan

latitud: 24-54N, longitud: 067-08E, altitud: 21 m

Observació

L'informe es va fer fa 31 minuts, a les 14:55 UTC
Vent 6 kt del Oest
Temperatura 18°C
Humitat 37%
Pressió 1017 hPa
Visibilitat: 4000 m
Cel ennuvolat a una alçada de 10000 ft
calitja

METAR: OPKC 201455Z 27006KT 4000 HZ BKN100 18/03 Q1017 NOSIG

Hora: 20:26 (15:26 UTC)

Pronòstic

L'informe es va fer fa 5 hores i 56 minuts, a les 09:30 UTC
Pronòstic vàlid del 20 a les 12 UTC al 21 a les 18 UTC
Vent 10 kt del Nord-Est amb ràfegues de 20 kt
Visibilitat: 7000 m
Evolucionant progressivament
l' 20 a les 14 UTC al 20 a les 16 UTC
Vent 10 kt del Oest
Visibilitat: 6000 m
Escasses núvols a una alçada de 4000 ft
Temporalment
l' 21 a les 01 UTC al 21 a les 05 UTC
Vent 5 kt del Est/Nord-Est
Visibilitat: 4000 m
calitja

TAF: OPKC 200930Z 2012/2118 05010G20KT 7000 NSC BECMG 2014/2016 27010KT 6000 FEW040 TEMPO 2101/2105 07005KT 4000 HZ NSC

Observacions i pronòstics meteorològics de més de 4000 aeroports (METAR i TAF).

Les estacions disponibles són els punts grocs i vermells al mapa.

Posi el ratolí al punt desitjat per veure el nom de l'estació.

Feu clic per veure les observacions i els pronòstics meteorològics.

Per canviar el mapa: feu clic els botons verds amb una creu de color negre per apropar; al botó verd amb un guió per allunyar la imatge; o en les fletxes verdes per a mapes adjacents.


METAR-TAF: